Time;durP1;ratioP1;P1;durP2;ratioP2;P2;SDS_P1;SDS_P2;PMS_P1;PMS_P2;Temp;Humidity;BMP_temperature;BMP_pressure;BME280_temperature;BME280_humidity;BME280_pressure;Samples;Min_cycle;Max_cycle;Signal;HPM_P1;HPM_P2
2022/07/22 00:01:33;;;;;;;28.63;13.68;;;16.80;99.90;;;;;;5006991;28;20030;-55
2022/07/22 00:03:59;;;;;;;25.48;13.32;;;16.80;99.90;;;;;;5005979;28;20499;-57
2022/07/22 00:06:25;;;;;;;27.88;14.20;;;16.80;99.90;;;;;;4990960;28;20050;-58
2022/07/22 00:08:51;;;;;;;25.80;14.82;;;16.80;99.90;;;;;;5003624;28;20476;-57
2022/07/22 00:11:16;;;;;;;24.40;15.00;;;16.80;99.90;;;;;;5005618;28;20030;-51
2022/07/22 00:13:42;;;;;;;30.15;18.00;;;16.80;99.90;;;;;;4997117;28;20038;-56
2022/07/22 00:16:07;;;;;;;27.42;15.65;;;16.80;99.90;;;;;;5006851;28;20030;-57
2022/07/22 00:18:33;;;;;;;27.00;15.45;;;16.80;99.90;;;;;;5002786;28;20083;-58
2022/07/22 00:20:59;;;;;;;29.65;16.15;;;16.80;99.90;;;;;;5004572;28;20399;-58
2022/07/22 00:23:24;;;;;;;25.77;16.52;;;16.80;99.90;;;;;;5007855;28;20160;-58
2022/07/22 00:25:50;;;;;;;25.25;16.25;;;16.80;99.90;;;;;;4998472;28;20084;-57
2022/07/22 00:28:15;;;;;;;22.88;14.73;;;16.80;99.90;;;;;;5007596;28;20129;-55
2022/07/22 00:30:41;;;;;;;28.63;15.73;;;16.80;99.90;;;;;;5000858;28;20062;-53
2022/07/22 00:33:07;;;;;;;28.08;14.52;;;16.80;99.90;;;;;;4992716;28;20050;-57
2022/07/22 00:35:32;;;;;;;26.38;16.13;;;16.80;99.90;;;;;;5001894;28;20117;-57
2022/07/22 00:37:58;;;;;;;22.63;13.98;;;16.80;99.90;;;;;;5004585;28;20113;-53
2022/07/22 00:40:24;;;;;;;26.50;15.75;;;16.70;99.90;;;;;;5006231;28;20030;-56
2022/07/22 00:42:50;;;;;;;22.50;15.75;;;16.70;99.90;;;;;;4997900;28;20019;-55
2022/07/22 00:45:16;;;;;;;26.10;15.00;;;16.70;99.90;;;;;;5003715;28;20030;-53
2022/07/22 00:47:41;;;;;;;23.08;15.93;;;16.70;99.90;;;;;;4996569;28;20030;-57
2022/07/22 00:50:08;;;;;;;27.25;16.23;;;16.80;99.90;;;;;;4998312;28;20706;-56
2022/07/22 00:52:34;;;;;;;21.08;15.18;;;16.70;99.90;;;;;;4996044;28;20023;-56
2022/07/22 00:55:00;;;;;;;24.00;15.13;;;16.70;99.90;;;;;;4994655;28;20779;-55
2022/07/22 00:57:26;;;;;;;23.85;14.48;;;16.70;99.90;;;;;;4995657;28;20603;-58
2022/07/22 00:59:52;;;;;;;25.15;15.18;;;16.70;99.90;;;;;;4993405;28;20088;-54
2022/07/22 01:02:18;;;;;;;26.00;14.73;;;16.60;99.90;;;;;;4995990;28;20161;-54
2022/07/22 01:04:44;;;;;;;22.52;15.35;;;16.60;99.90;;;;;;5000330;28;20110;-53
2022/07/22 01:07:09;;;;;;;24.45;15.73;;;16.60;99.90;;;;;;4993916;28;20042;-56
2022/07/22 01:09:35;;;;;;;24.95;14.77;;;16.50;99.90;;;;;;4992658;28;20034;-54
2022/07/22 01:12:02;;;;;;;28.77;15.88;;;16.50;99.90;;;;;;4997642;28;20117;-56
2022/07/22 01:14:28;;;;;;;25.23;15.88;;;16.50;99.90;;;;;;4997198;28;20058;-56
2022/07/22 01:16:54;;;;;;;28.23;15.82;;;16.50;99.90;;;;;;5002018;28;20131;-55
2022/07/22 01:19:20;;;;;;;21.05;15.48;;;16.50;99.90;;;;;;5004214;28;20034;-52
2022/07/22 01:21:45;;;;;;;22.35;14.55;;;16.50;99.90;;;;;;4998465;28;20025;-55
2022/07/22 01:24:11;;;;;;;24.75;14.55;;;16.50;99.90;;;;;;5002055;28;20084;-53
2022/07/22 01:26:37;;;;;;;27.77;14.80;;;16.50;99.90;;;;;;4997151;28;20523;-57
2022/07/22 01:29:03;;;;;;;25.85;16.55;;;16.50;99.90;;;;;;4996413;28;20029;-56
2022/07/22 01:31:29;;;;;;;21.98;13.70;;;16.50;99.90;;;;;;4997817;28;20095;-55
2022/07/22 01:33:55;;;;;;;23.92;14.88;;;16.50;99.90;;;;;;5004422;28;20029;-57
2022/07/22 01:36:21;;;;;;;28.60;15.35;;;16.50;99.90;;;;;;5001742;28;20026;-54
2022/07/22 01:38:46;;;;;;;23.95;14.30;;;16.50;99.90;;;;;;4997642;28;20109;-57
2022/07/22 01:41:12;;;;;;;20.10;13.05;;;16.50;99.90;;;;;;5002503;28;20408;-57
2022/07/22 01:43:38;;;;;;;27.52;13.90;;;16.50;99.90;;;;;;5001357;28;20029;-58
2022/07/22 01:46:04;;;;;;;26.27;13.20;;;16.40;99.90;;;;;;4996892;28;20039;-56
2022/07/22 01:48:30;;;;;;;23.95;12.35;;;16.50;99.90;;;;;;5006701;28;20036;-56
2022/07/22 01:50:56;;;;;;;23.65;11.88;;;16.40;99.90;;;;;;5001910;28;20031;-58
2022/07/22 01:53:22;;;;;;;16.13;10.27;;;16.40;99.90;;;;;;5002258;28;20022;-57
2022/07/22 01:55:48;;;;;;;25.50;13.02;;;16.40;99.90;;;;;;4999967;28;20077;-57
2022/07/22 01:58:14;;;;;;;23.40;11.80;;;16.40;99.90;;;;;;4994767;28;20117;-58
2022/07/22 02:00:40;;;;;;;23.52;12.75;;;16.40;99.90;;;;;;4998623;28;20105;-58
2022/07/22 02:03:06;;;;;;;20.52;12.15;;;16.40;99.90;;;;;;4994560;28;20073;-58
2022/07/22 02:05:32;;;;;;;19.73;10.88;;;16.40;99.90;;;;;;4996349;28;20030;-56
2022/07/22 02:08:07;;;;;;;19.63;11.65;;;16.40;99.90;;;;;;4990522;28;20104;-57
2022/07/22 02:10:32;;;;;;;18.88;11.25;;;16.40;99.90;;;;;;4997411;28;20027;-56
2022/07/22 02:12:59;;;;;;;23.77;12.43;;;16.40;99.90;;;;;;4990913;28;20514;-57
2022/07/22 02:15:25;;;;;;;18.08;10.88;;;16.40;99.90;;;;;;4996978;28;20033;-58
2022/07/22 02:17:50;;;;;;;26.73;12.07;;;16.40;99.90;;;;;;4995188;28;20037;-58
2022/07/22 02:20:16;;;;;;;23.85;10.93;;;16.30;99.90;;;;;;4996261;28;20614;-56
2022/07/22 02:22:42;;;;;;;27.70;12.77;;;16.30;99.90;;;;;;4999806;28;20081;-58
2022/07/22 02:25:08;;;;;;;21.30;13.48;;;16.30;99.90;;;;;;4994166;28;20474;-57
2022/07/22 02:27:34;;;;;;;27.23;14.50;;;16.30;99.90;;;;;;4999204;28;20027;-57
2022/07/22 02:30:00;;;;;;;27.08;14.88;;;16.20;99.90;;;;;;5005092;28;20104;-56
2022/07/22 02:32:25;;;;;;;23.38;13.90;;;16.20;99.90;;;;;;5004807;28;20030;-58
2022/07/22 02:34:51;;;;;;;23.55;14.70;;;16.20;99.90;;;;;;5003199;28;20018;-57
2022/07/22 02:37:17;;;;;;;22.92;13.85;;;16.20;99.90;;;;;;5010473;28;20102;-57
2022/07/22 02:39:42;;;;;;;22.92;12.73;;;16.20;99.90;;;;;;5004618;28;20036;-56
2022/07/22 02:42:08;;;;;;;24.35;14.43;;;16.20;99.90;;;;;;5008937;28;20037;-56
2022/07/22 02:44:34;;;;;;;19.35;13.18;;;16.20;99.90;;;;;;5010507;28;20117;-56
2022/07/22 02:46:59;;;;;;;30.42;14.52;;;16.20;99.90;;;;;;5007307;28;20403;-55
2022/07/22 02:49:25;;;;;;;24.92;14.43;;;16.20;99.90;;;;;;5008738;28;20065;-57
2022/07/22 02:51:50;;;;;;;25.83;15.32;;;16.20;99.90;;;;;;5007210;28;20109;-58
2022/07/22 02:54:16;;;;;;;28.90;15.60;;;16.20;99.90;;;;;;5010347;28;20022;-58
2022/07/22 02:56:42;;;;;;;27.27;15.48;;;16.20;99.90;;;;;;5001437;28;20462;-56
2022/07/22 02:59:07;;;;;;;26.77;15.93;;;16.20;99.90;;;;;;5002437;28;20038;-54
2022/07/22 03:01:33;;;;;;;27.27;16.30;;;16.20;99.90;;;;;;5006136;28;20120;-56
2022/07/22 03:03:59;;;;;;;29.67;15.45;;;16.20;99.90;;;;;;5007342;28;20101;-58
2022/07/22 03:06:24;;;;;;;28.52;15.10;;;16.10;99.90;;;;;;5008693;28;20060;-56
2022/07/22 03:08:50;;;;;;;30.52;15.77;;;16.20;99.90;;;;;;5004775;28;20033;-57
2022/07/22 03:11:15;;;;;;;30.83;16.27;;;16.20;99.90;;;;;;5009521;28;20689;-56
2022/07/22 03:13:41;;;;;;;30.77;16.33;;;16.20;99.90;;;;;;5012934;28;20025;-57
2022/07/22 03:16:07;;;;;;;23.58;15.50;;;16.20;99.90;;;;;;5000170;28;20068;-57
2022/07/22 03:18:34;;;;;;;28.08;15.90;;;16.20;99.90;;;;;;5008920;28;20392;-55
2022/07/22 03:20:59;;;;;;;33.90;17.50;;;16.20;99.90;;;;;;4998001;28;20046;-56
2022/07/22 03:23:25;;;;;;;27.38;18.05;;;16.20;99.90;;;;;;5000535;28;20520;-58
2022/07/22 03:25:50;;;;;;;26.33;17.63;;;16.20;99.90;;;;;;5032642;23;20046;-62
2022/07/22 03:28:16;;;;;;;31.40;17.33;;;16.20;99.90;;;;;;5031361;28;20033;-59
2022/07/22 03:30:42;;;;;;;31.30;19.27;;;16.10;99.90;;;;;;5031761;28;20024;-57
2022/07/22 03:33:07;;;;;;;32.00;19.67;;;16.20;99.90;;;;;;5031829;28;20483;-59
2022/07/22 03:35:33;;;;;;;32.65;19.50;;;16.20;99.90;;;;;;5021849;28;20018;-59
2022/07/22 03:37:58;;;;;;;33.13;19.80;;;16.10;99.90;;;;;;5024228;28;20029;-57
2022/07/22 03:40:24;;;;;;;34.78;19.77;;;16.20;99.90;;;;;;5029618;28;20442;-57
2022/07/22 03:42:50;;;;;;;34.90;19.90;;;16.20;99.90;;;;;;5022335;28;20033;-60
2022/07/22 03:45:15;;;;;;;30.42;20.23;;;16.10;99.90;;;;;;5017955;28;20091;-60
2022/07/22 03:47:41;;;;;;;28.67;19.45;;;16.10;99.90;;;;;;5028743;28;20476;-58
2022/07/22 03:50:07;;;;;;;31.75;19.38;;;16.20;99.90;;;;;;5022822;28;20026;-59
2022/07/22 03:52:33;;;;;;;31.02;19.05;;;16.20;99.90;;;;;;5018805;28;20025;-59
2022/07/22 03:54:58;;;;;;;28.05;18.45;;;16.20;99.90;;;;;;5024019;28;20022;-58
2022/07/22 03:57:24;;;;;;;26.90;18.67;;;16.20;99.90;;;;;;5019898;28;20030;-58
2022/07/22 03:59:50;;;;;;;26.17;17.88;;;16.20;99.90;;;;;;5021845;28;20132;-60
2022/07/22 04:02:15;;;;;;;25.05;16.27;;;16.10;99.90;;;;;;5022384;28;20037;-59
2022/07/22 04:04:41;;;;;;;26.83;17.08;;;16.20;99.90;;;;;;5019822;28;20021;-59
2022/07/22 04:07:06;;;;;;;27.52;16.75;;;16.10;99.90;;;;;;5023120;28;20413;-57
2022/07/22 04:09:32;;;;;;;23.63;15.73;;;16.10;99.90;;;;;;5017562;28;20475;-56
2022/07/22 04:11:58;;;;;;;22.90;15.45;;;16.10;99.90;;;;;;5022442;28;20029;-59
2022/07/22 04:14:23;;;;;;;25.98;15.90;;;16.10;99.90;;;;;;5014631;28;20026;-58
2022/07/22 04:16:49;;;;;;;27.45;15.73;;;16.10;99.90;;;;;;5018911;28;20083;-59
2022/07/22 04:19:15;;;;;;;21.85;14.63;;;16.10;99.90;;;;;;5024436;28;20052;-58
2022/07/22 04:21:41;;;;;;;35.03;17.52;;;16.10;99.90;;;;;;5023026;28;20034;-56
2022/07/22 04:24:06;;;;;;;31.73;16.23;;;16.10;99.90;;;;;;5028228;28;20140;-59
2022/07/22 04:26:32;;;;;;;28.55;17.38;;;16.10;99.90;;;;;;5022027;28;20030;-58
2022/07/22 04:28:58;;;;;;;27.95;16.10;;;16.10;99.90;;;;;;5029853;28;20028;-57
2022/07/22 04:31:24;;;;;;;32.38;16.50;;;16.20;99.90;;;;;;5018922;28;20049;-58
2022/07/22 04:33:49;;;;;;;26.63;17.50;;;16.20;99.90;;;;;;5028460;28;20037;-55
2022/07/22 04:36:15;;;;;;;31.73;18.60;;;16.20;99.90;;;;;;5014784;28;20109;-59
2022/07/22 04:38:41;;;;;;;28.65;18.10;;;16.20;99.90;;;;;;5023543;28;20025;-54
2022/07/22 04:41:06;;;;;;;30.25;16.75;;;16.30;99.90;;;;;;5022152;28;20155;-58
2022/07/22 04:43:32;;;;;;;29.35;17.45;;;16.30;99.90;;;;;;5029624;28;20453;-56
2022/07/22 04:45:58;;;;;;;26.55;15.88;;;16.30;99.90;;;;;;5025467;28;20025;-57
2022/07/22 04:48:23;;;;;;;30.23;17.75;;;16.30;99.90;;;;;;5022257;28;20206;-58
2022/07/22 04:50:49;;;;;;;26.73;17.00;;;16.40;99.90;;;;;;5019715;28;20037;-58
2022/07/22 04:53:15;;;;;;;28.02;16.23;;;16.40;99.90;;;;;;5022140;28;20510;-57
2022/07/22 04:55:40;;;;;;;30.33;16.38;;;16.40;99.90;;;;;;5022738;28;20029;-59
2022/07/22 04:58:06;;;;;;;23.83;17.58;;;16.30;99.90;;;;;;5021498;28;20076;-59
2022/07/22 05:00:32;;;;;;;24.38;16.52;;;16.30;99.90;;;;;;5027937;28;20129;-60
2022/07/22 05:02:58;;;;;;;26.75;16.13;;;16.30;99.90;;;;;;5023288;28;20747;-56
2022/07/22 05:05:24;;;;;;;27.00;15.77;;;16.40;99.90;;;;;;5021713;28;20029;-60
2022/07/22 05:07:50;;;;;;;24.35;16.50;;;16.40;99.90;;;;;;5029001;28;20509;-60
2022/07/22 05:10:15;;;;;;;25.30;15.93;;;16.50;99.90;;;;;;5028294;28;20539;-57
2022/07/22 05:12:41;;;;;;;33.60;16.20;;;16.50;99.90;;;;;;5024448;28;20025;-60
2022/07/22 05:15:07;;;;;;;22.17;16.00;;;16.50;99.90;;;;;;5025350;28;20059;-57
2022/07/22 05:17:33;;;;;;;25.00;15.82;;;16.60;99.90;;;;;;5016015;28;20025;-58
2022/07/22 05:19:58;;;;;;;23.33;15.73;;;16.70;99.90;;;;;;5027639;28;20032;-60
2022/07/22 05:22:24;;;;;;;23.25;16.25;;;16.70;99.90;;;;;;5023456;28;20034;-58
2022/07/22 05:24:49;;;;;;;25.83;16.80;;;16.70;99.90;;;;;;5024465;28;20065;-59
2022/07/22 05:27:15;;;;;;;29.77;17.52;;;16.70;99.90;;;;;;5020154;28;20037;-60
2022/07/22 05:29:41;;;;;;;24.85;18.25;;;16.70;99.90;;;;;;5021114;28;20037;-59
2022/07/22 05:32:06;;;;;;;30.52;18.58;;;16.80;99.90;;;;;;5020985;28;20056;-59
2022/07/22 05:34:32;;;;;;;29.58;19.02;;;16.80;99.90;;;;;;5024092;28;20492;-56
2022/07/22 05:36:57;;;;;;;27.88;17.33;;;16.80;99.90;;;;;;5022002;28;20025;-57
2022/07/22 05:39:23;;;;;;;26.30;17.25;;;16.90;99.90;;;;;;5023801;28;20420;-57
2022/07/22 05:41:48;;;;;;;27.27;17.45;;;16.90;99.90;;;;;;5029909;28;20447;-59
2022/07/22 05:44:14;;;;;;;26.58;16.90;;;16.90;99.90;;;;;;5023037;28;20043;-59
2022/07/22 05:46:40;;;;;;;25.92;17.05;;;17.00;99.90;;;;;;5016930;28;20041;-57
2022/07/22 05:49:06;;;;;;;27.15;17.00;;;17.00;99.90;;;;;;5020993;28;20021;-61
2022/07/22 05:51:31;;;;;;;26.92;18.23;;;17.00;99.90;;;;;;5019882;28;20021;-57
2022/07/22 05:53:57;;;;;;;27.80;16.88;;;17.10;99.90;;;;;;5022354;28;20017;-57
2022/07/22 05:56:23;;;;;;;26.08;18.05;;;17.10;99.90;;;;;;5019728;28;20487;-57
2022/07/22 05:58:48;;;;;;;28.88;18.40;;;17.10;99.90;;;;;;5023145;28;20013;-60
2022/07/22 06:01:14;;;;;;;24.38;17.42;;;17.10;99.90;;;;;;5018765;28;20409;-60
2022/07/22 06:03:40;;;;;;;30.20;19.48;;;17.20;99.90;;;;;;5017685;28;20053;-56
2022/07/22 06:06:08;;;;;;;24.38;17.02;;;17.20;99.90;;;;;;5018480;28;20517;-58
2022/07/22 06:08:34;;;;;;;25.52;17.15;;;17.20;99.90;;;;;;5029936;28;20372;-59
2022/07/22 06:11:00;;;;;;;25.27;17.75;;;17.30;99.90;;;;;;5030601;28;20037;-60
2022/07/22 06:13:26;;;;;;;26.50;18.23;;;17.30;99.90;;;;;;5021394;28;20395;-60
2022/07/22 06:15:52;;;;;;;21.88;15.63;;;17.30;99.90;;;;;;5022501;28;20056;-60
2022/07/22 06:18:18;;;;;;;26.83;16.77;;;17.30;99.90;;;;;;5019949;28;20049;-60
2022/07/22 06:20:44;;;;;;;23.38;17.45;;;17.40;99.90;;;;;;5025529;28;20029;-59
2022/07/22 06:23:10;;;;;;;23.90;15.25;;;17.40;99.90;;;;;;5026572;28;20084;-60
2022/07/22 06:25:36;;;;;;;23.55;16.52;;;17.50;99.90;;;;;;5027278;28;20057;-61
2022/07/22 06:28:02;;;;;;;23.45;14.80;;;17.50;99.90;;;;;;5025708;28;20026;-59
2022/07/22 06:30:27;;;;;;;22.25;14.60;;;17.50;99.90;;;;;;5030865;28;20033;-60
2022/07/22 06:32:53;;;;;;;21.73;14.98;;;17.70;99.90;;;;;;5031580;28;21224;-58
2022/07/22 06:35:19;;;;;;;19.67;14.52;;;17.70;99.90;;;;;;5031238;28;20498;-55
2022/07/22 06:37:45;;;;;;;25.05;15.30;;;17.70;99.90;;;;;;5032527;28;20117;-57
2022/07/22 06:40:11;;;;;;;23.52;15.15;;;17.70;99.90;;;;;;5032467;28;20044;-59
2022/07/22 06:42:37;;;;;;;19.80;14.15;;;17.60;99.90;;;;;;5030165;28;20028;-57
2022/07/22 06:45:04;;;;;;;23.08;15.32;;;17.60;99.90;;;;;;5026065;28;20053;-57
2022/07/22 06:47:30;;;;;;;28.23;16.00;;;17.60;99.90;;;;;;5023930;28;20052;-56
2022/07/22 06:49:56;;;;;;;23.75;16.83;;;17.60;99.90;;;;;;5023928;28;20032;-59
2022/07/22 06:52:21;;;;;;;25.98;16.80;;;17.60;99.90;;;;;;5023883;28;20025;-57
2022/07/22 06:54:47;;;;;;;20.50;13.60;;;17.50;99.90;;;;;;5019952;28;20046;-59
2022/07/22 06:57:12;;;;;;;27.77;15.30;;;17.60;99.90;;;;;;5025741;28;20045;-56
2022/07/22 06:59:38;;;;;;;22.65;16.15;;;17.60;99.90;;;;;;5026414;28;20026;-59
2022/07/22 07:02:04;;;;;;;23.88;16.02;;;17.50;99.90;;;;;;4996688;28;20038;-58
2022/07/22 07:04:30;;;;;;;25.02;15.30;;;17.50;99.90;;;;;;5020433;28;20094;-59
2022/07/22 07:06:56;;;;;;;23.90;17.35;;;17.60;99.90;;;;;;5022575;28;20021;-59
2022/07/22 07:09:21;;;;;;;25.23;15.93;;;17.50;99.90;;;;;;5020556;28;20069;-57
2022/07/22 07:11:47;;;;;;;30.48;16.60;;;17.60;99.90;;;;;;5016557;28;20060;-58
2022/07/22 07:14:13;;;;;;;23.80;14.90;;;17.60;99.90;;;;;;5027267;28;20037;-57
2022/07/22 07:16:39;;;;;;;24.88;14.93;;;17.70;99.90;;;;;;5026730;28;20021;-59
2022/07/22 07:19:04;;;;;;;20.67;13.77;;;17.80;99.90;;;;;;5019157;28;20483;-59
2022/07/22 07:21:30;;;;;;;23.67;15.00;;;17.90;99.90;;;;;;5029455;28;20033;-50
2022/07/22 07:23:56;;;;;;;20.83;15.02;;;18.00;99.90;;;;;;5023213;28;20043;-58
2022/07/22 07:26:21;;;;;;;23.77;14.60;;;18.10;99.90;;;;;;5028293;28;20048;-59
2022/07/22 07:28:47;;;;;;;19.80;13.90;;;18.20;99.90;;;;;;5023926;28;20026;-58
2022/07/22 07:31:13;;;;;;;22.27;13.88;;;18.30;99.90;;;;;;5025991;28;20056;-58
2022/07/22 07:33:39;;;;;;;20.10;13.02;;;18.40;99.90;;;;;;5021413;28;20014;-58
2022/07/22 07:36:05;;;;;;;18.77;12.70;;;18.60;99.90;;;;;;5023228;28;20022;-57
2022/07/22 07:38:31;;;;;;;17.33;11.90;;;18.60;99.90;;;;;;5017502;28;20040;-60
2022/07/22 07:40:57;;;;;;;17.70;10.90;;;18.70;99.90;;;;;;5028882;28;20026;-59
2022/07/22 07:43:22;;;;;;;18.60;11.25;;;18.80;99.90;;;;;;5028058;28;20104;-57
2022/07/22 07:45:48;;;;;;;19.80;13.82;;;18.80;99.90;;;;;;5024183;28;20029;-59
2022/07/22 07:48:14;;;;;;;16.42;11.77;;;18.70;99.90;;;;;;5023081;28;20481;-58
2022/07/22 07:50:40;;;;;;;14.60;11.10;;;18.80;99.90;;;;;;5022420;28;20121;-60
2022/07/22 07:53:06;;;;;;;22.45;13.70;;;18.80;99.90;;;;;;5023608;28;20014;-59
2022/07/22 07:55:35;;;;;;;18.15;12.50;;;18.70;99.90;;;;;;5023195;28;20476;-50
2022/07/22 07:58:01;;;;;;;16.52;12.35;;;18.70;99.90;;;;;;5026188;28;20028;-58
2022/07/22 08:00:28;;;;;;;21.90;13.60;;;18.80;99.90;;;;;;5008601;28;20491;-60
2022/07/22 08:02:55;;;;;;;16.05;12.27;;;18.80;99.90;;;;;;5028024;28;20028;-58
2022/07/22 08:05:21;;;;;;;15.10;11.00;;;19.00;99.90;;;;;;5022375;28;20028;-59
2022/07/22 08:07:48;;;;;;;14.52;10.80;;;19.00;99.90;;;;;;5023576;28;20029;-57
2022/07/22 08:10:14;;;;;;;14.15;10.60;;;19.20;99.90;;;;;;5027874;28;20029;-58
2022/07/22 08:12:39;;;;;;;19.17;10.82;;;19.30;99.90;;;;;;5028217;28;20025;-60
2022/07/22 08:15:06;;;;;;;15.70;11.88;;;19.30;99.90;;;;;;5026968;28;20021;-58
2022/07/22 08:17:33;;;;;;;19.13;13.23;;;19.30;99.90;;;;;;5026854;28;20061;-53
2022/07/22 08:19:59;;;;;;;19.17;13.43;;;19.40;99.90;;;;;;5027680;28;20020;-57
2022/07/22 08:22:24;;;;;;;25.98;13.52;;;19.40;99.90;;;;;;5028536;28;20034;-57
2022/07/22 08:24:50;;;;;;;17.27;13.55;;;19.40;99.90;;;;;;5021989;28;20033;-60
2022/07/22 08:27:16;;;;;;;19.20;12.40;;;19.40;99.90;;;;;;5023191;28;20044;-59
2022/07/22 08:29:42;;;;;;;15.68;11.18;;;19.50;99.90;;;;;;5025414;28;20028;-60
2022/07/22 08:32:07;;;;;;;18.75;11.48;;;19.60;99.90;;;;;;5029708;28;20394;-56
2022/07/22 08:34:33;;;;;;;16.85;12.55;;;19.70;99.90;;;;;;5023440;28;20029;-57
2022/07/22 08:36:58;;;;;;;17.25;11.52;;;19.80;99.90;;;;;;5020273;28;20026;-56
2022/07/22 08:39:24;;;;;;;19.75;12.55;;;19.80;99.90;;;;;;5024007;28;20458;-57
2022/07/22 08:41:50;;;;;;;17.75;12.32;;;19.80;99.90;;;;;;5018061;28;20044;-58
2022/07/22 08:44:16;;;;;;;18.02;11.75;;;19.90;99.90;;;;;;5026483;28;20128;-58
2022/07/22 08:46:45;;;;;;;17.88;11.23;;;19.80;99.90;;;;;;5022312;28;20025;-60
2022/07/22 08:49:14;;;;;;;15.68;10.55;;;19.70;99.90;;;;;;5024205;28;20108;-57
2022/07/22 08:51:40;;;;;;;15.30;11.88;;;19.80;99.90;;;;;;5020254;28;20087;-56
2022/07/22 08:54:05;;;;;;;13.18;9.60;;;19.90;99.90;;;;;;5022785;28;20025;-60
2022/07/22 08:56:31;;;;;;;14.73;10.52;;;20.10;99.90;;;;;;5018331;28;20120;-58
2022/07/22 08:58:56;;;;;;;15.35;10.27;;;20.10;99.90;;;;;;5017627;28;20060;-58
2022/07/22 09:01:22;;;;;;;13.15;9.30;;;20.20;99.90;;;;;;5023757;28;20618;-60
2022/07/22 09:03:55;;;;;;;12.02;9.25;;;20.30;99.90;;;;;;5009799;28;20057;-58
2022/07/22 09:06:23;;;;;;;15.13;10.27;;;20.20;99.90;;;;;;5020838;28;20033;-58
2022/07/22 09:09:02;;;;;;;12.80;9.80;;;20.20;99.90;;;;;;5021340;28;20032;-60
2022/07/22 09:11:30;;;;;;;12.02;9.30;;;20.20;99.90;;;;;;5020189;28;20045;-60
2022/07/22 09:13:57;;;;;;;11.45;9.07;;;20.20;99.90;;;;;;5029431;28;20030;-57
2022/07/22 09:16:43;;;;;;;11.75;8.80;;;20.40;99.90;;;;;;5025355;28;20025;-58
2022/07/22 09:19:09;;;;;;;12.63;9.25;;;20.40;99.90;;;;;;5016636;28;20494;-57
2022/07/22 09:21:37;;;;;;;11.82;7.47;;;20.40;99.90;;;;;;5017880;28;20053;-57
2022/07/22 09:24:04;;;;;;;11.75;7.10;;;20.40;99.90;;;;;;5019432;28;20034;-59
2022/07/22 09:26:36;;;;;;;10.98;7.50;;;20.60;99.90;;;;;;5026594;28;20036;-59
2022/07/22 09:29:04;;;;;;;9.90;6.72;;;20.80;99.90;;;;;;5022428;28;20558;-59
2022/07/22 09:31:35;;;;;;;9.20;7.38;;;20.90;99.90;;;;;;5019618;28;20045;-58
2022/07/22 09:34:02;;;;;;;9.10;7.10;;;21.00;99.90;;;;;;5021527;28;20041;-59
2022/07/22 09:36:28;;;;;;;9.43;7.70;;;21.10;99.90;;;;;;5012834;28;20366;-60
2022/07/22 09:38:54;;;;;;;10.88;7.32;;;21.20;99.90;;;;;;5022241;28;20029;-59
2022/07/22 09:41:20;;;;;;;9.90;6.70;;;21.10;99.90;;;;;;5027881;28;20029;-60
2022/07/22 09:43:46;;;;;;;8.68;6.90;;;20.90;99.90;;;;;;5025145;28;20057;-60
2022/07/22 09:46:12;;;;;;;10.63;6.88;;;21.10;99.90;;;;;;5030571;28;20036;-60
2022/07/22 09:48:39;;;;;;;9.48;6.82;;;21.20;99.90;;;;;;5029747;28;20168;-57
2022/07/22 09:51:04;;;;;;;7.40;5.85;;;21.50;99.90;;;;;;5030432;28;20025;-61
2022/07/22 09:53:32;;;;;;;11.48;6.30;;;21.80;99.90;;;;;;5029092;28;20739;-60
2022/07/22 09:56:03;;;;;;;8.52;6.03;;;22.00;99.90;;;;;;5026479;28;20499;-58
2022/07/22 09:58:29;;;;;;;10.38;6.70;;;22.20;99.90;;;;;;5025865;28;20033;-60
2022/07/22 10:00:59;;;;;;;8.60;6.10;;;22.20;99.90;;;;;;5021935;28;20395;-59
2022/07/22 10:03:31;;;;;;;9.65;5.68;;;22.00;99.90;;;;;;5024017;28;20037;-59
2022/07/22 10:05:58;;;;;;;7.82;6.00;;;21.90;99.90;;;;;;5020505;28;20715;-60
2022/07/22 10:08:29;;;;;;;8.35;5.35;;;21.80;99.90;;;;;;5026352;28;20088;-61
2022/07/22 10:11:02;;;;;;;8.02;5.65;;;21.60;99.90;;;;;;5031186;28;20059;-58
2022/07/22 10:13:29;;;;;;;7.15;5.43;;;21.40;99.90;;;;;;5029055;28;20034;-60
2022/07/22 10:15:56;;;;;;;7.90;6.32;;;21.70;99.90;;;;;;5027446;28;20036;-57
2022/07/22 10:18:22;;;;;;;8.75;6.85;;;21.80;99.90;;;;;;5030691;28;20033;-58
2022/07/22 10:20:48;;;;;;;8.77;5.65;;;21.80;99.90;;;;;;5030804;28;20025;-59
2022/07/22 10:23:14;;;;;;;8.50;6.82;;;21.70;99.90;;;;;;5030649;28;20653;-58
2022/07/22 10:26:00;;;;;;;8.02;6.07;;;21.60;99.90;;;;;;5030312;28;20499;-58
2022/07/22 10:28:34;;;;;;;12.82;6.60;;;21.40;99.90;;;;;;5028837;28;20026;-56
2022/07/22 10:31:18;;;;;;;10.10;5.68;;;21.20;99.90;;;;;;5030513;28;20491;-57
2022/07/22 10:33:48;;;;;;;8.82;6.70;;;21.30;99.90;;;;;;5025588;28;20018;-55
2022/07/22 10:36:14;;;;;;;10.23;6.88;;;21.30;99.90;;;;;;5024054;28;20025;-59
2022/07/22 10:39:03;;;;;;;9.05;6.32;;;21.40;99.90;;;;;;5028971;28;20449;-59
2022/07/22 10:41:37;;;;;;;10.90;6.63;;;21.40;99.90;;;;;;5028820;28;20109;-58
2022/07/22 10:44:04;;;;;;;9.32;6.40;;;21.30;99.90;;;;;;5030313;28;20068;-56
2022/07/22 10:46:49;;;;;;;7.38;5.63;;;21.50;99.90;;;;;;5023548;28;20026;-59
2022/07/22 10:49:18;;;;;;;10.70;6.22;;;21.80;99.90;;;;;;5029974;28;20115;-59
2022/07/22 10:52:16;;;;;;;7.72;6.25;;;21.90;99.90;;;;;;5022559;28;20041;-58
2022/07/22 10:55:17;;;;;;;9.02;6.15;;;21.80;99.90;;;;;;5019479;28;20480;-60
2022/07/22 10:57:42;;;;;;;8.20;6.00;;;21.60;99.90;;;;;;5022192;28;20443;-52
2022/07/22 11:00:08;;;;;;;8.73;6.97;;;21.90;99.90;;;;;;5026884;28;20053;-53
2022/07/22 11:02:37;;;;;;;9.65;6.72;;;22.10;99.90;;;;;;5027051;28;20105;-60
2022/07/22 11:05:03;;;;;;;13.88;7.47;;;21.80;99.90;;;;;;5025118;28;20025;-57
2022/07/22 11:07:31;;;;;;;9.90;6.60;;;22.20;99.90;;;;;;5023737;28;20105;-61
2022/07/22 11:10:15;;;;;;;8.00;6.55;;;22.70;99.90;;;;;;5021724;28;20083;-57
2022/07/22 11:12:41;;;;;;;7.60;6.47;;;23.00;99.90;;;;;;5029172;28;20450;-59
2022/07/22 11:15:08;;;;;;;7.82;6.22;;;22.90;99.90;;;;;;5027537;28;20068;-60
2022/07/22 11:17:35;;;;;;;8.13;6.43;;;23.10;99.90;;;;;;5026188;28;20499;-59
2022/07/22 11:20:06;;;;;;;10.70;6.68;;;23.90;99.90;;;;;;5027480;28;20124;-58
2022/07/22 11:22:32;;;;;;;9.15;6.00;;;23.50;98.90;;;;;;5019504;28;20033;-60
2022/07/22 11:25:00;;;;;;;7.70;6.90;;;23.60;98.40;;;;;;5026009;28;20034;-61
2022/07/22 11:27:26;;;;;;;7.15;6.22;;;23.80;98.50;;;;;;5018751;28;20098;-60
2022/07/22 11:29:53;;;;;;;9.57;7.00;;;23.70;99.00;;;;;;5023304;28;20133;-61
2022/07/22 11:32:23;;;;;;;8.35;5.75;;;24.00;98.60;;;;;;5023596;28;20067;-58
2022/07/22 11:34:49;;;;;;;8.88;6.72;;;24.30;98.50;;;;;;5025806;28;20028;-59
2022/07/22 11:37:18;;;;;;;11.05;7.03;;;24.30;96.90;;;;;;5026860;28;20025;-61
2022/07/22 11:39:43;;;;;;;8.68;6.70;;;24.40;96.20;;;;;;5031122;28;20018;-61
2022/07/22 11:42:09;;;;;;;10.60;7.80;;;24.60;97.30;;;;;;5031403;28;20495;-58
2022/07/22 11:44:37;;;;;;;10.95;7.18;;;25.00;94.90;;;;;;5024665;28;20044;-57
2022/07/22 11:47:04;;;;;;;9.15;6.22;;;25.00;95.20;;;;;;5024853;28;20026;-58
2022/07/22 11:49:35;;;;;;;8.35;6.60;;;24.80;97.00;;;;;;5025758;28;20041;-60
2022/07/22 11:52:11;;;;;;;10.80;6.45;;;24.70;96.60;;;;;;5022419;28;20022;-60
2022/07/22 11:54:38;;;;;;;8.15;6.10;;;24.90;94.30;;;;;;5009144;28;20133;-58
2022/07/22 11:57:03;;;;;;;9.38;6.85;;;24.30;95.50;;;;;;5018772;28;20049;-61
2022/07/22 11:59:29;;;;;;;10.82;6.57;;;24.30;96.30;;;;;;5021406;28;21889;-58
2022/07/22 12:01:55;;;;;;;10.43;7.47;;;24.40;96.10;;;;;;5028298;28;20021;-62
2022/07/22 12:04:25;;;;;;;10.05;7.07;;;23.90;95.60;;;;;;5019464;28;20044;-62
2022/07/22 12:06:54;;;;;;;9.30;7.35;;;24.00;96.20;;;;;;5021951;28;20038;-57
2022/07/22 12:09:21;;;;;;;10.07;6.90;;;24.10;95.70;;;;;;5023821;28;20559;-59
2022/07/22 12:11:52;;;;;;;7.75;6.53;;;24.10;95.30;;;;;;5023363;28;20029;-57
2022/07/22 12:14:20;;;;;;;13.80;7.32;;;24.00;95.70;;;;;;5027876;28;20064;-56
2022/07/22 12:17:11;;;;;;;7.75;6.68;;;23.50;96.60;;;;;;5028254;28;20032;-61
2022/07/22 12:19:38;;;;;;;8.73;6.28;;;23.40;98.00;;;;;;5023338;28;20034;-59
2022/07/22 12:22:15;;;;;;;11.45;6.97;;;23.50;97.60;;;;;;5025126;28;20403;-58
2022/07/22 12:24:43;;;;;;;10.00;5.93;;;23.30;97.60;;;;;;5023639;28;20033;-59
2022/07/22 12:27:14;;;;;;;7.45;6.13;;;23.40;97.80;;;;;;5027621;28;20095;-58
2022/07/22 12:29:39;;;;;;;10.90;7.18;;;24.00;97.20;;;;;;5017911;28;20546;-58